Andover, Vermont
Current Conditions -  °F | °C
As of 1:54 PM on Friday 24 Oct 2014 (Local Time) from KVSF Reporting Station
Overcast Overcast  
Wind Chill: 41°   Ceiling: 2500
Heat Index: 47°   Visibility: 10mi
Dew Point: 40°   Wind: 13mph
Humidity: 77%   Direction: 270°W
Pressure: 29.76"   Gusts: NA
Location:  43.2811°N, 72.6352°W
Report Text: KVSF 241754Z AUTO 27011KT 10SM OVC025 08/04 A2976 RMK AO2 SLP080 60000 T00830044 10083 20067 58008
Loading
Personal Weather Stations






























Interactive Weather Map
Tropical Storm Tracking
New forecast layout! Learn more

10-Day Weather Forecast

Advertisements
Track Severe Weather on mobile